createdAt,value
2022-09-20T00:00:48.075Z,14.05
2022-09-20T00:03:15.922Z,14.30
2022-09-20T00:05:44.977Z,14.16
2022-09-20T00:08:16.627Z,13.96
2022-09-20T00:10:43.602Z,13.90
2022-09-20T00:13:12.771Z,14.30
2022-09-20T00:15:44.642Z,14.13
2022-09-20T00:18:11.672Z,14.28
2022-09-20T00:20:48.984Z,14.01
2022-09-20T00:23:16.307Z,14.26
2022-09-20T00:25:43.621Z,14.21
2022-09-20T00:28:11.260Z,14.10
2022-09-20T00:30:38.963Z,14.25
2022-09-20T00:33:05.698Z,13.94
2022-09-20T00:35:32.484Z,13.94
2022-09-20T00:37:59.186Z,13.81
2022-09-20T00:40:29.097Z,14.12
2022-09-20T00:42:55.864Z,14.16
2022-09-20T00:45:28.555Z,14.34
2022-09-20T00:48:30.390Z,14.27
2022-09-20T00:51:06.980Z,14.20
2022-09-20T00:53:38.460Z,14.26
2022-09-20T00:56:09.187Z,14.15
2022-09-20T00:58:40.882Z,14.29
2022-09-20T01:01:07.913Z,13.96
2022-09-20T01:03:38.460Z,13.99
2022-09-20T01:06:11.873Z,14.17
2022-09-20T01:08:41.423Z,13.98
2022-09-20T01:11:08.462Z,14.00
2022-09-20T01:13:35.086Z,13.86
2022-09-20T01:16:04.725Z,14.33
2022-09-20T01:18:33.651Z,14.16
2022-09-20T01:21:01.504Z,13.76
2022-09-20T01:23:55.652Z,13.77
2022-09-20T01:26:45.451Z,13.62
2022-09-20T01:29:18.055Z,13.57
2022-09-20T01:31:54.733Z,13.30
2022-09-20T01:34:45.015Z,13.51
2022-09-20T01:37:24.035Z,13.20
2022-09-20T01:40:10.844Z,13.76
2022-09-20T01:42:40.986Z,13.46
2022-09-20T01:45:28.484Z,13.44
2022-09-20T01:48:04.109Z,13.73
2022-09-20T01:50:52.434Z,13.67
2022-09-20T01:53:41.044Z,13.78
2022-09-20T01:56:10.787Z,13.73
2022-09-20T01:59:22.786Z,13.76
2022-09-20T02:01:52.002Z,13.79
2022-09-20T02:04:43.536Z,13.75
2022-09-20T02:07:28.686Z,13.83
2022-09-20T02:10:34.153Z,13.85
2022-09-20T02:13:08.862Z,13.83
2022-09-20T02:15:59.542Z,13.90
2022-09-20T02:18:26.246Z,13.91
2022-09-20T02:21:17.781Z,13.96
2022-09-20T02:24:04.707Z,13.92
2022-09-20T02:26:31.338Z,13.66
2022-09-20T02:29:35.651Z,13.97
2022-09-20T02:32:40.870Z,13.93
2022-09-20T02:35:16.624Z,13.57
2022-09-20T02:38:08.816Z,13.95
2022-09-20T02:40:57.204Z,13.93
2022-09-20T02:43:48.790Z,13.56
2022-09-20T02:46:22.683Z,13.79
2022-09-20T02:49:08.426Z,13.82
2022-09-20T02:51:43.834Z,13.87
2022-09-20T02:54:32.007Z,13.85
2022-09-20T02:57:20.371Z,13.77
2022-09-20T02:59:54.116Z,13.73
2022-09-20T03:02:30.926Z,13.83
2022-09-20T03:05:25.984Z,13.97
2022-09-20T03:08:08.195Z,13.73
2022-09-20T03:10:54.236Z,13.84
2022-09-20T03:13:49.550Z,13.92
2022-09-20T03:16:22.705Z,13.92
2022-09-20T03:18:56.976Z,14.02
2022-09-20T03:21:38.901Z,13.85
2022-09-20T03:24:20.720Z,13.79
2022-09-20T03:26:50.346Z,13.92
2022-09-20T03:29:37.750Z,13.94
2022-09-20T03:32:32.068Z,13.96
2022-09-20T03:34:58.665Z,13.97
2022-09-20T03:37:44.054Z,13.97
2022-09-20T03:40:41.681Z,13.93
2022-09-20T03:43:24.623Z,13.82
2022-09-20T03:45:54.667Z,13.85
2022-09-20T03:48:52.243Z,13.78
2022-09-20T03:51:23.718Z,13.72
2022-09-20T03:53:59.896Z,13.51
2022-09-20T03:57:03.504Z,13.68
2022-09-20T03:59:45.299Z,13.75
2022-09-20T04:02:34.863Z,13.44
2022-09-20T04:05:18.435Z,13.47
2022-09-20T04:08:04.168Z,13.82
2022-09-20T04:10:41.715Z,13.71
2022-09-20T04:13:37.695Z,13.70
2022-09-20T04:16:15.884Z,13.66
2022-09-20T04:18:45.485Z,13.70
2022-09-20T04:21:42.959Z,13.69
2022-09-20T04:24:22.805Z,13.68
2022-09-20T04:27:00.326Z,13.63
2022-09-20T04:29:32.612Z,13.62
2022-09-20T04:32:36.922Z,13.54
2022-09-20T04:35:51.648Z,13.54
2022-09-20T04:38:21.054Z,13.30
2022-09-20T04:41:13.041Z,13.67
2022-09-20T04:44:06.530Z,13.63
2022-09-20T04:46:45.255Z,13.78
2022-09-20T04:50:11.111Z,13.69
2022-09-20T04:53:02.552Z,13.72
2022-09-20T04:55:44.910Z,13.67
2022-09-20T04:58:18.663Z,13.72
2022-09-20T05:01:17.335Z,13.53
2022-09-20T05:04:08.950Z,13.79
2022-09-20T05:06:39.009Z,13.79
2022-09-20T05:09:33.514Z,13.85
2022-09-20T05:12:37.587Z,13.81
2022-09-20T05:15:23.374Z,13.90
2022-09-20T05:18:26.662Z,13.77
2022-09-20T05:21:39.553Z,13.64
2022-09-20T05:24:24.843Z,13.83
2022-09-20T05:26:54.403Z,13.76
2022-09-20T05:29:25.859Z,13.72
2022-09-20T05:32:30.455Z,13.78
2022-09-20T05:35:04.884Z,13.84
2022-09-20T05:37:46.583Z,13.89
2022-09-20T05:40:21.896Z,13.92
2022-09-20T05:43:11.459Z,13.96
2022-09-20T05:46:10.818Z,13.50
2022-09-20T05:48:46.874Z,13.93
2022-09-20T05:52:02.032Z,14.03
2022-09-20T05:54:47.163Z,14.00
2022-09-20T05:57:56.609Z,13.96
2022-09-20T06:00:29.193Z,13.94
2022-09-20T06:03:05.551Z,13.77
2022-09-20T06:06:14.752Z,13.87
2022-09-20T06:08:50.523Z,13.70
2022-09-20T06:11:49.034Z,13.66
2022-09-20T06:14:51.186Z,13.76
2022-09-20T06:17:53.311Z,13.89
2022-09-20T06:20:29.970Z,13.84
2022-09-20T06:23:02.037Z,13.84
2022-09-20T06:25:38.110Z,13.91
2022-09-20T06:28:14.521Z,13.88
2022-09-20T06:30:47.889Z,13.77
2022-09-20T06:33:17.235Z,13.81
2022-09-20T06:35:46.583Z,13.89
2022-09-20T06:38:56.648Z,13.88
2022-09-20T06:41:31.071Z,13.73
2022-09-20T06:43:59.594Z,13.92
2022-09-20T06:46:31.906Z,13.93
2022-09-20T06:48:59.034Z,13.50
2022-09-20T06:51:29.012Z,13.53
2022-09-20T06:53:57.489Z,13.88
2022-09-20T06:56:28.218Z,13.74
2022-09-20T06:58:54.953Z,13.83
2022-09-20T07:01:29.733Z,13.37
2022-09-20T07:03:57.572Z,13.51
2022-09-20T07:06:24.318Z,13.61
2022-09-20T07:08:51.127Z,13.69
2022-09-20T07:11:18.119Z,13.85
2022-09-20T07:13:46.243Z,13.72
2022-09-20T07:16:17.130Z,13.62
2022-09-20T07:18:44.360Z,13.74
2022-09-20T07:21:16.534Z,13.52
2022-09-20T07:23:45.952Z,13.52
2022-09-20T07:26:25.928Z,13.53
2022-09-20T07:28:53.277Z,13.71
2022-09-20T07:31:23.057Z,13.77
2022-09-20T07:33:49.920Z,13.58
2022-09-20T07:36:16.938Z,13.76
2022-09-20T07:38:51.192Z,13.89
2022-09-20T07:41:23.068Z,13.68
2022-09-20T07:43:51.208Z,13.44
2022-09-20T07:46:18.357Z,13.75
2022-09-20T07:48:45.216Z,14.07
2022-09-20T07:51:13.749Z,14.34
2022-09-20T07:53:41.224Z,14.52
2022-09-20T07:56:12.042Z,14.45
2022-09-20T07:58:39.601Z,14.59
2022-09-20T08:01:09.250Z,14.92
2022-09-20T08:03:36.636Z,14.89
2022-09-20T08:06:07.410Z,15.17
2022-09-20T08:08:36.919Z,15.24
2022-09-20T08:11:06.601Z,15.41
2022-09-20T08:16:24.995Z,15.70
2022-09-20T08:18:56.924Z,15.55
2022-09-20T08:21:26.180Z,15.75
2022-09-20T08:23:53.675Z,15.38
2022-09-20T08:26:24.799Z,15.79
2022-09-20T08:28:56.985Z,15.86
2022-09-20T08:31:27.028Z,15.27
2022-09-20T08:33:54.843Z,15.01
2022-09-20T08:36:25.137Z,15.11
2022-09-20T08:41:51.768Z,14.95
2022-09-20T08:44:36.566Z,15.31
2022-09-20T08:47:23.935Z,15.38
2022-09-20T08:49:57.184Z,15.15
2022-09-20T08:55:22.167Z,15.93
2022-09-20T08:57:57.551Z,15.50
2022-09-20T09:00:34.826Z,15.70
2022-09-20T09:05:53.229Z,16.42
2022-09-20T09:08:26.354Z,16.36
2022-09-20T09:10:55.811Z,16.59
2022-09-20T09:13:32.627Z,16.60
2022-09-20T09:16:03.082Z,16.67
2022-09-20T09:18:35.030Z,16.38
2022-09-20T09:21:05.163Z,16.20
2022-09-20T09:23:42.356Z,16.69
2022-09-20T09:26:21.475Z,16.37
2022-09-20T09:29:34.243Z,16.38
2022-09-20T09:32:21.501Z,16.17
2022-09-20T09:34:53.483Z,16.44
2022-09-20T09:37:29.213Z,16.44
2022-09-20T09:40:16.718Z,16.39
2022-09-20T09:42:59.044Z,16.39
2022-09-20T09:45:42.103Z,16.28
2022-09-20T09:48:18.123Z,16.34
2022-09-20T09:50:47.849Z,16.05
2022-09-20T09:53:37.139Z,16.13
2022-09-20T09:56:15.509Z,16.30
2022-09-20T09:59:10.780Z,16.01
2022-09-20T10:01:56.769Z,15.92
2022-09-20T10:04:41.902Z,16.25
2022-09-20T10:07:28.533Z,16.11
2022-09-20T10:10:08.961Z,16.26
2022-09-20T10:12:47.303Z,15.87
2022-09-20T10:15:28.307Z,16.38
2022-09-20T10:18:24.733Z,16.21
2022-09-20T10:20:55.891Z,16.73
2022-09-20T10:24:05.636Z,16.41
2022-09-20T10:26:55.898Z,16.50
2022-09-20T10:29:31.839Z,16.73
2022-09-20T10:32:13.628Z,16.89
2022-09-20T10:34:49.529Z,16.73
2022-09-20T10:37:59.700Z,16.65
2022-09-20T10:40:59.689Z,16.63
2022-09-20T10:43:52.623Z,17.17
2022-09-20T10:46:51.687Z,17.10
2022-09-20T10:49:29.690Z,17.37
2022-09-20T10:52:19.786Z,17.50
2022-09-20T10:55:25.209Z,17.51
2022-09-20T11:01:10.776Z,17.45
2022-09-20T11:04:04.717Z,17.69
2022-09-20T11:06:48.062Z,18.02
2022-09-20T11:09:21.016Z,18.23
2022-09-20T11:11:56.257Z,18.18
2022-09-20T11:14:32.970Z,18.24
2022-09-20T11:17:29.879Z,17.97
2022-09-20T11:20:08.243Z,18.21
2022-09-20T11:22:42.725Z,18.51
2022-09-20T11:25:23.983Z,18.83
2022-09-20T11:27:59.125Z,18.72
2022-09-20T11:30:25.960Z,18.37
2022-09-20T11:33:24.762Z,18.62
2022-09-20T11:35:56.226Z,18.57
2022-09-20T11:38:35.264Z,18.78
2022-09-20T11:41:11.927Z,18.65
2022-09-20T11:43:46.543Z,18.39
2022-09-20T11:46:25.197Z,18.71
2022-09-20T11:49:10.854Z,17.99
2022-09-20T11:51:53.211Z,18.06
2022-09-20T11:54:35.741Z,18.46
2022-09-20T11:57:03.523Z,18.25
2022-09-20T11:59:51.076Z,18.59
2022-09-20T12:02:29.041Z,18.35
2022-09-20T12:04:56.700Z,18.86
2022-09-20T12:07:42.113Z,18.83
2022-09-20T12:10:23.958Z,19.16
2022-09-20T12:13:00.348Z,19.25
2022-09-20T12:15:31.379Z,19.59
2022-09-20T12:17:58.046Z,19.70
2022-09-20T12:20:38.962Z,19.83
2022-09-20T12:23:43.170Z,19.77
2022-09-20T12:26:15.734Z,19.89
2022-09-20T12:29:23.927Z,19.64
2022-09-20T12:31:53.455Z,19.75
2022-09-20T12:34:20.229Z,19.72
2022-09-20T12:36:56.019Z,19.83
2022-09-20T12:39:30.098Z,20.09
2022-09-20T12:41:56.903Z,20.17
2022-09-20T12:44:43.950Z,20.00
2022-09-20T12:47:10.541Z,19.87
2022-09-20T12:50:00.335Z,20.31
2022-09-20T12:52:54.093Z,20.46
2022-09-20T12:55:30.343Z,19.71
2022-09-20T12:58:02.090Z,20.02
2022-09-20T13:00:39.064Z,20.02
2022-09-20T13:03:32.028Z,20.42
2022-09-20T13:06:05.808Z,20.41
2022-09-20T13:08:43.000Z,20.02
2022-09-20T13:11:18.793Z,19.69
2022-09-20T13:14:07.225Z,19.84
2022-09-20T13:16:39.872Z,19.53
2022-09-20T13:19:06.920Z,19.72
2022-09-20T13:21:40.699Z,19.63
2022-09-20T13:24:11.130Z,19.67
2022-09-20T13:26:44.438Z,19.82
2022-09-20T13:29:25.586Z,19.96
2022-09-20T13:31:52.285Z,19.58
2022-09-20T13:34:25.897Z,19.57
2022-09-20T13:37:00.996Z,20.02
2022-09-20T13:39:34.556Z,20.02
2022-09-20T13:44:58.872Z,19.98
2022-09-20T13:47:28.660Z,20.16
2022-09-20T13:50:10.405Z,19.83
2022-09-20T13:52:46.838Z,19.58
2022-09-20T13:55:44.215Z,20.28
2022-09-20T13:58:34.757Z,20.22
2022-09-20T14:01:05.452Z,20.29
2022-09-20T14:03:34.715Z,20.02
2022-09-20T14:06:05.740Z,20.20
2022-09-20T14:08:38.695Z,19.89
2022-09-20T14:11:07.484Z,20.14
2022-09-20T14:13:41.665Z,19.97
2022-09-20T14:16:09.812Z,20.01
2022-09-20T14:18:39.720Z,19.83
2022-09-20T14:21:09.595Z,19.95
2022-09-20T14:24:02.251Z,20.01
2022-09-20T14:26:39.359Z,19.94
2022-09-20T14:29:27.923Z,19.99
2022-09-20T14:31:55.898Z,19.44
2022-09-20T14:34:23.602Z,19.55
2022-09-20T14:36:51.220Z,19.07
2022-09-20T14:39:20.106Z,19.28
2022-09-20T14:41:48.677Z,19.13
2022-09-20T14:44:37.188Z,19.44
2022-09-20T14:47:17.890Z,19.03
2022-09-20T14:52:31.450Z,19.62
2022-09-20T14:55:02.772Z,19.81
2022-09-20T14:57:30.143Z,19.40
2022-09-20T14:59:59.740Z,19.12
2022-09-20T15:02:27.615Z,19.11
2022-09-20T15:05:01.030Z,19.16
2022-09-20T15:07:28.321Z,19.32
2022-09-20T15:09:55.017Z,19.41
2022-09-20T15:12:21.913Z,19.92
2022-09-20T15:14:49.086Z,19.90
2022-09-20T15:17:23.252Z,19.99
2022-09-20T15:19:50.953Z,20.02
2022-09-20T15:22:18.292Z,19.66
2022-09-20T15:24:45.935Z,20.05
2022-09-20T15:27:13.573Z,19.75
2022-09-20T15:29:42.111Z,19.49
2022-09-20T15:32:11.474Z,19.63
2022-09-20T15:37:20.801Z,20.50
2022-09-20T15:39:49.926Z,20.24
2022-09-20T15:42:17.813Z,20.46
2022-09-20T15:47:29.731Z,20.65
2022-09-20T15:49:57.755Z,20.92
2022-09-20T15:55:09.606Z,20.76
2022-09-20T15:57:38.027Z,20.46
2022-09-20T16:05:30.515Z,20.50
2022-09-20T16:07:58.542Z,20.32
2022-09-20T16:10:25.266Z,20.32
2022-09-20T16:12:51.973Z,19.91
2022-09-20T16:15:18.962Z,19.77
2022-09-20T16:18:05.916Z,20.07
2022-09-20T16:20:32.698Z,19.97
2022-09-20T16:22:59.452Z,19.59
2022-09-20T16:25:26.294Z,19.52
2022-09-20T16:27:53.022Z,19.40
2022-09-20T16:30:19.834Z,19.32
2022-09-20T16:32:46.714Z,19.02
2022-09-20T16:35:14.013Z,18.92
2022-09-20T16:37:40.712Z,18.99
2022-09-20T16:40:10.849Z,18.97
2022-09-20T16:42:38.220Z,19.23
2022-09-20T16:45:05.279Z,19.03
2022-09-20T16:47:32.041Z,19.13
2022-09-20T16:49:58.808Z,19.01
2022-09-20T16:52:26.662Z,18.84
2022-09-20T16:54:53.471Z,18.96
2022-09-20T16:57:20.209Z,18.79
2022-09-20T16:59:48.045Z,18.42
2022-09-20T17:02:14.781Z,18.61
2022-09-20T17:04:43.916Z,18.56
2022-09-20T17:07:10.663Z,18.70
2022-09-20T17:09:37.375Z,19.07
2022-09-20T17:12:09.484Z,18.73
2022-09-20T17:14:37.195Z,18.71
2022-09-20T17:17:04.217Z,18.73
2022-09-20T17:19:30.928Z,18.65
2022-09-20T17:21:57.651Z,18.75
2022-09-20T17:24:25.351Z,18.84
2022-09-20T17:26:52.425Z,18.84
2022-09-20T17:29:20.622Z,18.76
2022-09-20T17:31:55.107Z,18.87
2022-09-20T17:34:24.786Z,18.72
2022-09-20T17:36:51.651Z,18.68
2022-09-20T17:39:18.914Z,18.33
2022-09-20T17:41:47.658Z,18.64
2022-09-20T17:44:15.607Z,18.56
2022-09-20T17:46:48.159Z,18.70
2022-09-20T17:49:18.104Z,18.46
2022-09-20T17:52:02.948Z,18.57
2022-09-20T17:54:29.770Z,18.03
2022-09-20T17:56:58.733Z,18.08
2022-09-20T17:59:25.561Z,18.17
2022-09-20T18:01:55.586Z,18.08
2022-09-20T18:04:24.652Z,18.26
2022-09-20T18:12:18.939Z,18.01
2022-09-20T18:22:55.330Z,17.53
2022-09-20T18:25:24.416Z,17.96
2022-09-20T18:27:51.609Z,17.80
2022-09-20T18:33:00.349Z,18.18
2022-09-20T18:38:11.894Z,17.95
2022-09-20T18:40:41.355Z,17.39
2022-09-20T18:43:12.462Z,17.39
2022-09-20T18:45:39.284Z,18.36
2022-09-20T18:48:07.645Z,18.07
2022-09-20T18:50:34.934Z,17.48
2022-09-20T18:53:01.799Z,17.82
2022-09-20T18:55:29.091Z,17.93
2022-09-20T18:58:00.676Z,17.65
2022-09-20T19:00:28.534Z,17.60
2022-09-20T19:03:31.432Z,18.11
2022-09-20T19:06:07.663Z,17.97
2022-09-20T19:08:43.259Z,18.01
2022-09-20T19:11:46.912Z,18.17
2022-09-20T19:14:43.935Z,17.69
2022-09-20T19:17:11.787Z,18.01
2022-09-20T19:19:56.034Z,17.87
2022-09-20T19:22:44.861Z,17.96
2022-09-20T19:25:39.727Z,18.01
2022-09-20T19:28:10.330Z,17.85
2022-09-20T19:30:40.659Z,17.83
2022-09-20T19:33:16.421Z,17.91
2022-09-20T19:35:49.577Z,17.98
2022-09-20T19:38:47.499Z,18.11
2022-09-20T19:41:27.723Z,17.91
2022-09-20T19:44:04.397Z,18.11
2022-09-20T19:46:50.372Z,18.10
2022-09-20T19:49:28.774Z,18.05
2022-09-20T19:51:57.158Z,17.88
2022-09-20T19:54:24.727Z,17.94
2022-09-20T19:56:57.368Z,18.08
2022-09-20T19:59:26.163Z,18.02
2022-09-20T20:01:54.164Z,18.02
2022-09-20T20:04:21.459Z,17.87
2022-09-20T20:06:51.254Z,18.02
2022-09-20T20:09:29.923Z,18.07
2022-09-20T20:12:16.064Z,18.00
2022-09-20T20:15:00.943Z,18.01
2022-09-20T20:17:46.483Z,17.98
2022-09-20T20:20:32.285Z,17.77
2022-09-20T20:23:13.606Z,18.01
2022-09-20T20:26:00.267Z,17.53
2022-09-20T20:28:27.570Z,17.75
2022-09-20T20:30:59.147Z,17.85
2022-09-20T20:33:26.976Z,17.63
2022-09-20T20:35:58.533Z,17.96
2022-09-20T20:38:26.723Z,17.84
2022-09-20T20:41:10.149Z,17.56
2022-09-20T20:43:39.239Z,17.86
2022-09-20T20:46:08.013Z,17.75
2022-09-20T20:48:35.079Z,17.50
2022-09-20T20:51:10.486Z,17.82
2022-09-20T20:53:40.877Z,17.77
2022-09-20T20:56:17.743Z,17.63
2022-09-20T20:58:46.188Z,17.80
2022-09-20T21:01:21.723Z,17.40
2022-09-20T21:03:53.225Z,17.75
2022-09-20T21:06:21.732Z,17.58
2022-09-20T21:08:49.745Z,17.72
2022-09-20T21:11:23.588Z,17.60
2022-09-20T21:13:51.533Z,17.36
2022-09-20T21:16:20.889Z,17.68
2022-09-20T21:18:49.029Z,17.59
2022-09-20T21:21:26.120Z,17.51
2022-09-20T21:23:55.708Z,17.57
2022-09-20T21:26:24.342Z,17.51
2022-09-20T21:28:54.062Z,17.48
2022-09-20T21:31:24.029Z,17.52
2022-09-20T21:33:50.811Z,17.13
2022-09-20T21:36:21.849Z,17.42
2022-09-20T21:38:48.792Z,17.05
2022-09-20T21:41:22.538Z,17.05
2022-09-20T21:43:54.016Z,16.98
2022-09-20T21:46:40.619Z,16.94
2022-09-20T21:49:10.296Z,17.08
2022-09-20T21:51:38.193Z,16.83
2022-09-20T21:54:05.512Z,17.02
2022-09-20T21:56:35.003Z,16.83
2022-09-20T21:59:04.562Z,17.05
2022-09-20T22:01:36.764Z,17.02
2022-09-20T22:04:11.829Z,16.99
2022-09-20T22:06:43.421Z,16.75
2022-09-20T22:09:17.595Z,16.76
2022-09-20T22:11:46.492Z,16.72
2022-09-20T22:14:15.161Z,16.72
2022-09-20T22:16:44.246Z,16.69
2022-09-20T22:19:13.635Z,16.60
2022-09-20T22:21:43.315Z,16.58
2022-09-20T22:24:12.030Z,16.60
2022-09-20T22:26:41.095Z,16.62
2022-09-20T22:29:07.869Z,16.46
2022-09-20T22:31:38.022Z,16.61
2022-09-20T22:34:07.427Z,16.48
2022-09-20T22:36:36.808Z,16.62
2022-09-20T22:39:06.271Z,16.45
2022-09-20T22:41:33.924Z,16.49
2022-09-20T22:44:00.682Z,16.37
2022-09-20T22:46:29.773Z,16.42
2022-09-20T22:48:56.730Z,16.20
2022-09-20T22:51:32.436Z,16.37
2022-09-20T22:53:59.625Z,16.22
2022-09-20T22:56:31.260Z,16.22
2022-09-20T22:59:05.587Z,16.00
2022-09-20T23:01:35.249Z,15.62
2022-09-20T23:04:10.366Z,16.03
2022-09-20T23:06:39.559Z,15.83
2022-09-20T23:09:09.935Z,15.88
2022-09-20T23:11:37.972Z,15.56
2022-09-20T23:14:06.103Z,15.41
2022-09-20T23:16:35.620Z,15.03
2022-09-20T23:19:04.201Z,15.18
2022-09-20T23:21:31.629Z,15.08
2022-09-20T23:24:00.326Z,14.97
2022-09-20T23:26:29.861Z,15.06
2022-09-20T23:28:58.785Z,15.06
2022-09-20T23:31:26.697Z,14.98
2022-09-20T23:33:59.065Z,14.93
2022-09-20T23:36:28.425Z,14.80
2022-09-20T23:38:57.005Z,15.01
2022-09-20T23:41:25.761Z,14.96
2022-09-20T23:43:53.169Z,15.13
2022-09-20T23:46:21.853Z,15.12
2022-09-20T23:48:50.512Z,14.65
2022-09-20T23:51:19.470Z,14.52
2022-09-20T23:53:46.922Z,14.65
2022-09-20T23:56:14.338Z,14.79
2022-09-20T23:58:43.193Z,14.95
